Allen Park, Michigan
Current Conditions -  °F | °C
As of 12:53 AM on Tuesday 27 Jan 2015 (Local Time) from KDTW Reporting Station
Scattered Clouds Scattered Clouds  
Wind Chill:   Ceiling: Unl
Heat Index: 14°   Visibility: 10mi
Dew Point:   Wind: 5mph
Humidity: 80%   Direction: 320°NW
Pressure: 29.98"   Gusts: NA
Location:  42.26°N, 83.22°W
Report Text: KDTW 270553Z 32004KT 10SM FEW025 SCT250 M10/M13 A2998 RMK AO2 SLP163 T11001128 11072 21106 56002
Loading
Personal Weather Stations






























Interactive Weather Map New forecast layout! Learn more

10-Day Weather Forecast

Advertisements
Track Severe Weather on mobile